sensor_id;sensor_type;location;lat;lon;timestamp;P1;durP1;ratioP1;P2;durP2;ratioP2
76765;SDS011;65707;52.362;6.588;2024-03-23T00:52:23;25.50;;;4.32;;
76765;SDS011;65707;52.362;6.588;2024-03-23T00:54:49;24.42;;;4.32;;
76765;SDS011;65707;52.362;6.588;2024-03-23T00:57:16;27.85;;;5.10;;
76765;SDS011;65707;52.362;6.588;2024-03-23T00:59:42;24.70;;;4.03;;
76765;SDS011;65707;52.362;6.588;2024-03-23T01:02:08;27.95;;;4.25;;
76765;SDS011;65707;52.362;6.588;2024-03-23T01:04:34;33.22;;;5.07;;
76765;SDS011;65707;52.362;6.588;2024-03-23T01:07:01;30.95;;;5.30;;
76765;SDS011;65707;52.362;6.588;2024-03-23T01:09:28;25.65;;;4.20;;
76765;SDS011;65707;52.362;6.588;2024-03-23T01:11:54;25.58;;;4.57;;
76765;SDS011;65707;52.362;6.588;2024-03-23T01:14:20;23.42;;;4.45;;
76765;SDS011;65707;52.362;6.588;2024-03-23T01:16:47;29.35;;;5.22;;
76765;SDS011;65707;52.362;6.588;2024-03-23T01:19:13;26.52;;;5.03;;
76765;SDS011;65707;52.362;6.588;2024-03-23T01:21:39;21.55;;;4.78;;
76765;SDS011;65707;52.362;6.588;2024-03-23T01:24:05;27.00;;;4.95;;
76765;SDS011;65707;52.362;6.588;2024-03-23T01:26:35;26.83;;;4.47;;
76765;SDS011;65707;52.362;6.588;2024-03-23T01:29:02;24.13;;;4.13;;
76765;SDS011;65707;52.362;6.588;2024-03-23T01:31:29;27.65;;;4.22;;
76765;SDS011;65707;52.362;6.588;2024-03-23T01:33:54;28.60;;;4.78;;
76765;SDS011;65707;52.362;6.588;2024-03-23T01:36:21;21.23;;;5.50;;
76765;SDS011;65707;52.362;6.588;2024-03-23T01:38:47;22.92;;;4.50;;
76765;SDS011;65707;52.362;6.588;2024-03-23T01:41:14;24.08;;;3.97;;
76765;SDS011;65707;52.362;6.588;2024-03-23T01:43:41;34.38;;;4.63;;
76765;SDS011;65707;52.362;6.588;2024-03-23T01:46:08;27.75;;;4.60;;
76765;SDS011;65707;52.362;6.588;2024-03-23T01:48:34;32.80;;;4.28;;
76765;SDS011;65707;52.362;6.588;2024-03-23T01:51:01;27.48;;;4.93;;
76765;SDS011;65707;52.362;6.588;2024-03-23T01:53:26;23.92;;;3.47;;
76765;SDS011;65707;52.362;6.588;2024-03-23T01:55:54;27.02;;;4.18;;
76765;SDS011;65707;52.362;6.588;2024-03-23T01:58:22;27.92;;;3.95;;
76765;SDS011;65707;52.362;6.588;2024-03-23T02:00:50;23.92;;;4.32;;
76765;SDS011;65707;52.362;6.588;2024-03-23T02:03:22;25.88;;;4.15;;
76765;SDS011;65707;52.362;6.588;2024-03-23T02:05:50;28.30;;;4.50;;
76765;SDS011;65707;52.362;6.588;2024-03-23T02:08:17;25.17;;;4.43;;
76765;SDS011;65707;52.362;6.588;2024-03-23T02:10:45;25.05;;;3.95;;
76765;SDS011;65707;52.362;6.588;2024-03-23T02:13:11;24.67;;;4.20;;
76765;SDS011;65707;52.362;6.588;2024-03-23T02:15:38;24.08;;;4.80;;
76765;SDS011;65707;52.362;6.588;2024-03-23T02:18:06;22.38;;;3.92;;
76765;SDS011;65707;52.362;6.588;2024-03-23T02:20:34;23.50;;;3.78;;
76765;SDS011;65707;52.362;6.588;2024-03-23T02:23:01;28.35;;;5.15;;
76765;SDS011;65707;52.362;6.588;2024-03-23T02:25:28;22.95;;;4.65;;
76765;SDS011;65707;52.362;6.588;2024-03-23T02:27:53;24.08;;;4.10;;
76765;SDS011;65707;52.362;6.588;2024-03-23T02:30:20;36.38;;;5.63;;
76765;SDS011;65707;52.362;6.588;2024-03-23T02:32:46;27.73;;;4.35;;
76765;SDS011;65707;52.362;6.588;2024-03-23T02:35:13;24.25;;;4.32;;
76765;SDS011;65707;52.362;6.588;2024-03-23T02:37:39;26.50;;;4.50;;
76765;SDS011;65707;52.362;6.588;2024-03-23T02:40:07;25.17;;;4.53;;
76765;SDS011;65707;52.362;6.588;2024-03-23T02:42:33;28.00;;;4.03;;
76765;SDS011;65707;52.362;6.588;2024-03-23T02:45:00;32.00;;;4.57;;
76765;SDS011;65707;52.362;6.588;2024-03-23T02:47:25;25.23;;;5.18;;
76765;SDS011;65707;52.362;6.588;2024-03-23T02:49:52;26.83;;;4.90;;
76765;SDS011;65707;52.362;6.588;2024-03-23T02:52:19;21.10;;;5.00;;
76765;SDS011;65707;52.362;6.588;2024-03-23T02:54:46;27.05;;;5.15;;
76765;SDS011;65707;52.362;6.588;2024-03-23T02:57:13;25.83;;;5.13;;
76765;SDS011;65707;52.362;6.588;2024-03-23T02:59:40;26.75;;;4.97;;
76765;SDS011;65707;52.362;6.588;2024-03-23T03:02:06;29.42;;;5.25;;
76765;SDS011;65707;52.362;6.588;2024-03-23T03:04:32;27.02;;;5.40;;
76765;SDS011;65707;52.362;6.588;2024-03-23T03:06:58;29.52;;;5.68;;
76765;SDS011;65707;52.362;6.588;2024-03-23T03:09:25;28.40;;;5.10;;
76765;SDS011;65707;52.362;6.588;2024-03-23T03:11:51;29.83;;;5.50;;
76765;SDS011;65707;52.362;6.588;2024-03-23T03:14:19;31.88;;;5.22;;
76765;SDS011;65707;52.362;6.588;2024-03-23T03:16:45;25.83;;;5.07;;
76765;SDS011;65707;52.362;6.588;2024-03-23T03:19:11;27.42;;;5.90;;
76765;SDS011;65707;52.362;6.588;2024-03-23T03:21:37;34.58;;;5.90;;
76765;SDS011;65707;52.362;6.588;2024-03-23T03:24:05;34.10;;;5.50;;
76765;SDS011;65707;52.362;6.588;2024-03-23T03:26:32;26.85;;;6.05;;
76765;SDS011;65707;52.362;6.588;2024-03-23T03:28:59;23.55;;;5.38;;
76765;SDS011;65707;52.362;6.588;2024-03-23T03:31:26;28.98;;;5.60;;
76765;SDS011;65707;52.362;6.588;2024-03-23T03:33:53;26.48;;;5.45;;
76765;SDS011;65707;52.362;6.588;2024-03-23T03:36:18;36.63;;;6.10;;
76765;SDS011;65707;52.362;6.588;2024-03-23T03:38:46;29.63;;;6.32;;
76765;SDS011;65707;52.362;6.588;2024-03-23T03:41:11;31.27;;;5.38;;
76765;SDS011;65707;52.362;6.588;2024-03-23T03:43:38;28.92;;;5.85;;
76765;SDS011;65707;52.362;6.588;2024-03-23T03:46:04;29.70;;;6.18;;
76765;SDS011;65707;52.362;6.588;2024-03-23T03:48:34;32.47;;;6.00;;
76765;SDS011;65707;52.362;6.588;2024-03-23T03:51:00;22.70;;;5.38;;
76765;SDS011;65707;52.362;6.588;2024-03-23T03:53:27;35.08;;;5.60;;
76765;SDS011;65707;52.362;6.588;2024-03-23T03:55:52;32.08;;;6.15;;
76765;SDS011;65707;52.362;6.588;2024-03-23T03:58:19;31.35;;;5.57;;
76765;SDS011;65707;52.362;6.588;2024-03-23T04:00:45;28.77;;;6.05;;
76765;SDS011;65707;52.362;6.588;2024-03-23T04:03:11;29.50;;;5.78;;
76765;SDS011;65707;52.362;6.588;2024-03-23T04:05:38;27.25;;;6.28;;
76765;SDS011;65707;52.362;6.588;2024-03-23T04:08:05;27.50;;;5.70;;
76765;SDS011;65707;52.362;6.588;2024-03-23T04:10:32;28.48;;;6.57;;
76765;SDS011;65707;52.362;6.588;2024-03-23T04:12:59;25.38;;;5.10;;
76765;SDS011;65707;52.362;6.588;2024-03-23T04:15:26;27.70;;;6.00;;
76765;SDS011;65707;52.362;6.588;2024-03-23T04:17:53;29.00;;;6.07;;
76765;SDS011;65707;52.362;6.588;2024-03-23T04:20:19;37.28;;;6.18;;
76765;SDS011;65707;52.362;6.588;2024-03-23T04:22:47;31.65;;;5.95;;
76765;SDS011;65707;52.362;6.588;2024-03-23T04:25:13;31.08;;;6.18;;
76765;SDS011;65707;52.362;6.588;2024-03-23T04:27:40;25.65;;;6.25;;
76765;SDS011;65707;52.362;6.588;2024-03-23T04:30:07;31.35;;;6.25;;
76765;SDS011;65707;52.362;6.588;2024-03-23T04:32:36;31.92;;;7.28;;
76765;SDS011;65707;52.362;6.588;2024-03-23T04:35:02;27.15;;;6.00;;
76765;SDS011;65707;52.362;6.588;2024-03-23T04:37:30;30.45;;;6.30;;
76765;SDS011;65707;52.362;6.588;2024-03-23T04:40:00;30.52;;;6.60;;
76765;SDS011;65707;52.362;6.588;2024-03-23T04:42:28;28.17;;;6.47;;
76765;SDS011;65707;52.362;6.588;2024-03-23T04:44:55;26.60;;;5.97;;
76765;SDS011;65707;52.362;6.588;2024-03-23T04:47:22;28.08;;;6.30;;
76765;SDS011;65707;52.362;6.588;2024-03-23T04:49:49;32.10;;;6.30;;
76765;SDS011;65707;52.362;6.588;2024-03-23T04:52:16;33.83;;;6.68;;
76765;SDS011;65707;52.362;6.588;2024-03-23T04:54:43;31.25;;;6.30;;
76765;SDS011;65707;52.362;6.588;2024-03-23T04:57:11;27.77;;;6.72;;
76765;SDS011;65707;52.362;6.588;2024-03-23T04:59:38;25.23;;;6.53;;
76765;SDS011;65707;52.362;6.588;2024-03-23T05:02:04;23.00;;;6.72;;
76765;SDS011;65707;52.362;6.588;2024-03-23T05:04:31;33.30;;;7.00;;
76765;SDS011;65707;52.362;6.588;2024-03-23T05:06:57;31.58;;;6.78;;
76765;SDS011;65707;52.362;6.588;2024-03-23T05:09:24;27.80;;;7.70;;
76765;SDS011;65707;52.362;6.588;2024-03-23T05:11:50;27.92;;;7.07;;
76765;SDS011;65707;52.362;6.588;2024-03-23T05:14:18;30.42;;;7.20;;
76765;SDS011;65707;52.362;6.588;2024-03-23T05:16:43;31.58;;;7.45;;
76765;SDS011;65707;52.362;6.588;2024-03-23T05:19:10;26.80;;;6.45;;
76765;SDS011;65707;52.362;6.588;2024-03-23T05:21:36;36.78;;;7.35;;
76765;SDS011;65707;52.362;6.588;2024-03-23T05:24:02;30.25;;;7.50;;
76765;SDS011;65707;52.362;6.588;2024-03-23T05:26:29;30.40;;;7.07;;
76765;SDS011;65707;52.362;6.588;2024-03-23T05:28:56;32.78;;;6.93;;
76765;SDS011;65707;52.362;6.588;2024-03-23T05:31:26;31.30;;;7.35;;
76765;SDS011;65707;52.362;6.588;2024-03-23T05:33:55;30.73;;;7.80;;
76765;SDS011;65707;52.362;6.588;2024-03-23T05:36:21;32.60;;;8.40;;
76765;SDS011;65707;52.362;6.588;2024-03-23T05:38:48;33.92;;;8.45;;
76765;SDS011;65707;52.362;6.588;2024-03-23T05:41:14;33.85;;;7.43;;
76765;SDS011;65707;52.362;6.588;2024-03-23T05:43:41;40.00;;;8.13;;
76765;SDS011;65707;52.362;6.588;2024-03-23T05:46:07;30.80;;;7.63;;
76765;SDS011;65707;52.362;6.588;2024-03-23T05:48:35;27.90;;;7.60;;
76765;SDS011;65707;52.362;6.588;2024-03-23T05:51:01;35.22;;;8.57;;
76765;SDS011;65707;52.362;6.588;2024-03-23T05:53:28;27.42;;;7.38;;
76765;SDS011;65707;52.362;6.588;2024-03-23T05:56:00;34.67;;;8.32;;
76765;SDS011;65707;52.362;6.588;2024-03-23T05:58:29;31.40;;;6.93;;
76765;SDS011;65707;52.362;6.588;2024-03-23T06:00:57;28.02;;;8.25;;
76765;SDS011;65707;52.362;6.588;2024-03-23T06:03:25;36.75;;;8.73;;
76765;SDS011;65707;52.362;6.588;2024-03-23T06:05:53;28.23;;;8.73;;
76765;SDS011;65707;52.362;6.588;2024-03-23T06:08:20;33.83;;;8.35;;
76765;SDS011;65707;52.362;6.588;2024-03-23T06:10:46;33.90;;;7.60;;
76765;SDS011;65707;52.362;6.588;2024-03-23T06:13:13;28.27;;;6.88;;
76765;SDS011;65707;52.362;6.588;2024-03-23T06:15:39;42.88;;;8.05;;
76765;SDS011;65707;52.362;6.588;2024-03-23T06:18:06;28.65;;;7.60;;
76765;SDS011;65707;52.362;6.588;2024-03-23T06:20:32;25.70;;;8.02;;
76765;SDS011;65707;52.362;6.588;2024-03-23T06:23:01;30.23;;;8.02;;
76765;SDS011;65707;52.362;6.588;2024-03-23T06:25:27;22.25;;;6.82;;
76765;SDS011;65707;52.362;6.588;2024-03-23T06:27:54;37.40;;;8.45;;
76765;SDS011;65707;52.362;6.588;2024-03-23T06:30:20;30.85;;;7.88;;
76765;SDS011;65707;52.362;6.588;2024-03-23T06:32:46;26.40;;;7.07;;
76765;SDS011;65707;52.362;6.588;2024-03-23T06:35:12;20.80;;;6.60;;
76765;SDS011;65707;52.362;6.588;2024-03-23T06:37:39;22.10;;;6.50;;
76765;SDS011;65707;52.362;6.588;2024-03-23T06:40:08;24.25;;;6.68;;
76765;SDS011;65707;52.362;6.588;2024-03-23T06:42:36;22.45;;;5.90;;
76765;SDS011;65707;52.362;6.588;2024-03-23T06:45:02;20.63;;;5.43;;
76765;SDS011;65707;52.362;6.588;2024-03-23T06:47:29;15.50;;;4.68;;
76765;SDS011;65707;52.362;6.588;2024-03-23T06:49:55;15.73;;;4.28;;
76765;SDS011;65707;52.362;6.588;2024-03-23T06:52:22;23.30;;;4.40;;
76765;SDS011;65707;52.362;6.588;2024-03-23T06:54:48;21.27;;;4.80;;
76765;SDS011;65707;52.362;6.588;2024-03-23T06:57:16;15.70;;;4.00;;
76765;SDS011;65707;52.362;6.588;2024-03-23T06:59:42;13.55;;;3.50;;
76765;SDS011;65707;52.362;6.588;2024-03-23T07:02:09;16.85;;;2.67;;
76765;SDS011;65707;52.362;6.588;2024-03-23T07:04:34;9.75;;;2.72;;
76765;SDS011;65707;52.362;6.588;2024-03-23T07:07:02;10.50;;;2.20;;
76765;SDS011;65707;52.362;6.588;2024-03-23T07:09:28;10.45;;;2.15;;
76765;SDS011;65707;52.362;6.588;2024-03-23T07:11:55;10.10;;;1.83;;
76765;SDS011;65707;52.362;6.588;2024-03-23T07:14:23;9.75;;;1.90;;
76765;SDS011;65707;52.362;6.588;2024-03-23T07:16:50;8.50;;;2.20;;
76765;SDS011;65707;52.362;6.588;2024-03-23T07:19:17;10.32;;;1.90;;
76765;SDS011;65707;52.362;6.588;2024-03-23T07:21:44;9.90;;;2.30;;
76765;SDS011;65707;52.362;6.588;2024-03-23T07:24:10;11.93;;;2.25;;
76765;SDS011;65707;52.362;6.588;2024-03-23T07:26:37;8.02;;;1.85;;
76765;SDS011;65707;52.362;6.588;2024-03-23T07:29:03;9.55;;;1.80;;
76765;SDS011;65707;52.362;6.588;2024-03-23T07:31:32;6.60;;;1.30;;
76765;SDS011;65707;52.362;6.588;2024-03-23T07:33:58;7.28;;;1.00;;
76765;SDS011;65707;52.362;6.588;2024-03-23T07:36:24;4.85;;;0.90;;
76765;SDS011;65707;52.362;6.588;2024-03-23T07:38:50;5.97;;;1.60;;
76765;SDS011;65707;52.362;6.588;2024-03-23T07:41:19;6.47;;;1.20;;
76765;SDS011;65707;52.362;6.588;2024-03-23T07:43:46;5.15;;;0.90;;
76765;SDS011;65707;52.362;6.588;2024-03-23T07:46:14;6.00;;;1.15;;
76765;SDS011;65707;52.362;6.588;2024-03-23T07:48:42;5.85;;;1.10;;
76765;SDS011;65707;52.362;6.588;2024-03-23T07:51:10;5.63;;;2.00;;
76765;SDS011;65707;52.362;6.588;2024-03-23T07:53:42;8.32;;;1.55;;
76765;SDS011;65707;52.362;6.588;2024-03-23T07:56:10;6.68;;;1.25;;
76765;SDS011;65707;52.362;6.588;2024-03-23T07:58:36;5.65;;;1.30;;
76765;SDS011;65707;52.362;6.588;2024-03-23T08:01:04;7.68;;;1.42;;
76765;SDS011;65707;52.362;6.588;2024-03-23T08:03:32;5.85;;;1.48;;
76765;SDS011;65707;52.362;6.588;2024-03-23T08:06:07;6.22;;;1.17;;
76765;SDS011;65707;52.362;6.588;2024-03-23T08:08:34;10.18;;;1.67;;
76765;SDS011;65707;52.362;6.588;2024-03-23T08:11:01;10.18;;;1.40;;
76765;SDS011;65707;52.362;6.588;2024-03-23T08:13:26;11.93;;;1.50;;
76765;SDS011;65707;52.362;6.588;2024-03-23T08:15:56;7.90;;;2.15;;
76765;SDS011;65707;52.362;6.588;2024-03-23T08:18:22;9.18;;;1.80;;
76765;SDS011;65707;52.362;6.588;2024-03-23T08:20:55;8.88;;;2.05;;
76765;SDS011;65707;52.362;6.588;2024-03-23T08:23:23;10.50;;;2.08;;
76765;SDS011;65707;52.362;6.588;2024-03-23T08:25:50;8.98;;;1.83;;
76765;SDS011;65707;52.362;6.588;2024-03-23T08:28:16;11.77;;;2.78;;
76765;SDS011;65707;52.362;6.588;2024-03-23T08:30:43;11.15;;;2.35;;
76765;SDS011;65707;52.362;6.588;2024-03-23T08:33:08;11.40;;;2.70;;
76765;SDS011;65707;52.362;6.588;2024-03-23T08:35:35;14.95;;;2.83;;
76765;SDS011;65707;52.362;6.588;2024-03-23T08:38:01;16.80;;;3.00;;
76765;SDS011;65707;52.362;6.588;2024-03-23T08:40:29;11.27;;;3.28;;
76765;SDS011;65707;52.362;6.588;2024-03-23T08:42:54;12.57;;;3.47;;
76765;SDS011;65707;52.362;6.588;2024-03-23T08:45:21;11.90;;;2.83;;
76765;SDS011;65707;52.362;6.588;2024-03-23T08:47:47;15.60;;;3.53;;
76765;SDS011;65707;52.362;6.588;2024-03-23T08:50:14;14.75;;;3.25;;
76765;SDS011;65707;52.362;6.588;2024-03-23T08:52:39;13.32;;;3.40;;
76765;SDS011;65707;52.362;6.588;2024-03-23T08:55:06;12.77;;;2.58;;
76765;SDS011;65707;52.362;6.588;2024-03-23T08:57:36;11.52;;;2.90;;
76765;SDS011;65707;52.362;6.588;2024-03-23T09:00:03;13.18;;;3.15;;
76765;SDS011;65707;52.362;6.588;2024-03-23T09:02:31;9.60;;;2.38;;
76765;SDS011;65707;52.362;6.588;2024-03-23T09:04:57;12.32;;;2.42;;
76765;SDS011;65707;52.362;6.588;2024-03-23T09:07:29;11.68;;;2.63;;
76765;SDS011;65707;52.362;6.588;2024-03-23T09:09:56;8.82;;;2.10;;
76765;SDS011;65707;52.362;6.588;2024-03-23T09:12:22;8.00;;;2.40;;
76765;SDS011;65707;52.362;6.588;2024-03-23T09:14:50;8.38;;;2.83;;
76765;SDS011;65707;52.362;6.588;2024-03-23T09:17:16;8.93;;;2.55;;
76765;SDS011;65707;52.362;6.588;2024-03-23T09:19:43;8.65;;;2.30;;
76765;SDS011;65707;52.362;6.588;2024-03-23T09:22:09;7.80;;;2.13;;
76765;SDS011;65707;52.362;6.588;2024-03-23T09:24:35;9.52;;;1.73;;
76765;SDS011;65707;52.362;6.588;2024-03-23T09:27:01;9.40;;;1.90;;
76765;SDS011;65707;52.362;6.588;2024-03-23T09:29:29;8.98;;;1.58;;
76765;SDS011;65707;52.362;6.588;2024-03-23T09:31:56;5.95;;;1.40;;
76765;SDS011;65707;52.362;6.588;2024-03-23T09:34:23;7.78;;;1.35;;
76765;SDS011;65707;52.362;6.588;2024-03-23T09:36:50;8.63;;;1.10;;
76765;SDS011;65707;52.362;6.588;2024-03-23T09:39:18;6.50;;;1.33;;
76765;SDS011;65707;52.362;6.588;2024-03-23T09:41:44;7.03;;;1.45;;
76765;SDS011;65707;52.362;6.588;2024-03-23T09:44:11;7.55;;;1.88;;
76765;SDS011;65707;52.362;6.588;2024-03-23T09:46:37;8.32;;;1.92;;
76765;SDS011;65707;52.362;6.588;2024-03-23T09:49:06;10.55;;;2.72;;
76765;SDS011;65707;52.362;6.588;2024-03-23T09:51:35;9.85;;;2.08;;
76765;SDS011;65707;52.362;6.588;2024-03-23T09:54:02;8.98;;;1.88;;
76765;SDS011;65707;52.362;6.588;2024-03-23T09:56:28;12.23;;;1.80;;
76765;SDS011;65707;52.362;6.588;2024-03-23T09:59:00;9.13;;;1.90;;
76765;SDS011;65707;52.362;6.588;2024-03-23T10:01:26;13.32;;;2.42;;
76765;SDS011;65707;52.362;6.588;2024-03-23T10:03:53;12.15;;;2.60;;
76765;SDS011;65707;52.362;6.588;2024-03-23T10:06:22;12.20;;;2.17;;
76765;SDS011;65707;52.362;6.588;2024-03-23T10:08:51;12.57;;;2.20;;
76765;SDS011;65707;52.362;6.588;2024-03-23T10:11:18;12.68;;;2.55;;
76765;SDS011;65707;52.362;6.588;2024-03-23T10:13:46;9.75;;;1.65;;
76765;SDS011;65707;52.362;6.588;2024-03-23T10:16:12;11.55;;;2.40;;
76765;SDS011;65707;52.362;6.588;2024-03-23T10:18:48;8.52;;;1.80;;
76765;SDS011;65707;52.362;6.588;2024-03-23T10:21:15;11.32;;;2.47;;
76765;SDS011;65707;52.362;6.588;2024-03-23T10:23:44;7.00;;;1.60;;
76765;SDS011;65707;52.362;6.588;2024-03-23T10:26:14;10.38;;;2.40;;
76765;SDS011;65707;52.362;6.588;2024-03-23T10:28:50;9.43;;;1.58;;
76765;SDS011;65707;52.362;6.588;2024-03-23T10:31:23;9.73;;;1.50;;
76765;SDS011;65707;52.362;6.588;2024-03-23T10:33:50;7.30;;;1.08;;
76765;SDS011;65707;52.362;6.588;2024-03-23T10:36:18;7.55;;;1.30;;
76765;SDS011;65707;52.362;6.588;2024-03-23T10:38:48;6.88;;;1.00;;
76765;SDS011;65707;52.362;6.588;2024-03-23T10:43:43;6.82;;;1.08;;
76765;SDS011;65707;52.362;6.588;2024-03-23T10:46:12;5.20;;;0.93;;
76765;SDS011;65707;52.362;6.588;2024-03-23T10:48:39;5.68;;;0.82;;
76765;SDS011;65707;52.362;6.588;2024-03-23T10:51:05;5.82;;;1.20;;
76765;SDS011;65707;52.362;6.588;2024-03-23T10:53:34;6.15;;;1.52;;
76765;SDS011;65707;52.362;6.588;2024-03-23T10:56:03;6.18;;;1.50;;
76765;SDS011;65707;52.362;6.588;2024-03-23T10:58:33;6.72;;;1.10;;
76765;SDS011;65707;52.362;6.588;2024-03-23T11:01:04;7.85;;;1.27;;
76765;SDS011;65707;52.362;6.588;2024-03-23T11:03:34;6.82;;;1.30;;
76765;SDS011;65707;52.362;6.588;2024-03-23T11:06:02;8.10;;;1.60;;
76765;SDS011;65707;52.362;6.588;2024-03-23T11:08:31;7.88;;;1.40;;
76765;SDS011;65707;52.362;6.588;2024-03-23T11:11:13;8.70;;;1.27;;
76765;SDS011;65707;52.362;6.588;2024-03-23T11:13:43;9.10;;;1.50;;
76765;SDS011;65707;52.362;6.588;2024-03-23T11:16:21;5.78;;;1.10;;
76765;SDS011;65707;52.362;6.588;2024-03-23T11:18:49;9.75;;;1.38;;
76765;SDS011;65707;52.362;6.588;2024-03-23T11:24:21;8.32;;;1.23;;
76765;SDS011;65707;52.362;6.588;2024-03-23T11:26:48;8.77;;;1.40;;
76765;SDS011;65707;52.362;6.588;2024-03-23T11:29:16;7.45;;;1.50;;
76765;SDS011;65707;52.362;6.588;2024-03-23T11:31:46;6.47;;;1.33;;
76765;SDS011;65707;52.362;6.588;2024-03-23T11:34:15;7.65;;;1.30;;
76765;SDS011;65707;52.362;6.588;2024-03-23T11:36:41;4.30;;;0.98;;
76765;SDS011;65707;52.362;6.588;2024-03-23T11:39:11;8.02;;;1.63;;
76765;SDS011;65707;52.362;6.588;2024-03-23T11:41:45;7.90;;;1.17;;
76765;SDS011;65707;52.362;6.588;2024-03-23T11:44:17;3.42;;;0.80;;
76765;SDS011;65707;52.362;6.588;2024-03-23T11:46:44;5.80;;;1.08;;
76765;SDS011;65707;52.362;6.588;2024-03-23T11:49:21;4.72;;;1.15;;
76765;SDS011;65707;52.362;6.588;2024-03-23T11:51:48;5.93;;;1.55;;
76765;SDS011;65707;52.362;6.588;2024-03-23T11:54:15;6.28;;;1.23;;
76765;SDS011;65707;52.362;6.588;2024-03-23T11:56:42;6.82;;;1.20;;
76765;SDS011;65707;52.362;6.588;2024-03-23T11:59:34;8.75;;;1.30;;
76765;SDS011;65707;52.362;6.588;2024-03-23T12:02:05;6.63;;;1.25;;
76765;SDS011;65707;52.362;6.588;2024-03-23T12:04:33;6.93;;;2.30;;
76765;SDS011;65707;52.362;6.588;2024-03-23T12:07:10;6.55;;;1.42;;
76765;SDS011;65707;52.362;6.588;2024-03-23T12:09:39;6.40;;;1.30;;
76765;SDS011;65707;52.362;6.588;2024-03-23T12:12:08;8.68;;;1.42;;
76765;SDS011;65707;52.362;6.588;2024-03-23T12:14:37;5.93;;;1.10;;
76765;SDS011;65707;52.362;6.588;2024-03-23T12:17:10;7.28;;;1.30;;
76765;SDS011;65707;52.362;6.588;2024-03-23T12:19:38;4.25;;;0.90;;
76765;SDS011;65707;52.362;6.588;2024-03-23T12:22:05;6.03;;;1.00;;
76765;SDS011;65707;52.362;6.588;2024-03-23T12:24:33;3.40;;;0.70;;
76765;SDS011;65707;52.362;6.588;2024-03-23T12:26:59;3.00;;;0.60;;
76765;SDS011;65707;52.362;6.588;2024-03-23T12:29:29;3.83;;;0.50;;
76765;SDS011;65707;52.362;6.588;2024-03-23T12:31:58;8.27;;;1.20;;
76765;SDS011;65707;52.362;6.588;2024-03-23T12:34:27;6.35;;;0.80;;
76765;SDS011;65707;52.362;6.588;2024-03-23T12:36:53;5.05;;;0.80;;
76765;SDS011;65707;52.362;6.588;2024-03-23T12:39:20;6.05;;;1.05;;
76765;SDS011;65707;52.362;6.588;2024-03-23T12:41:46;6.68;;;1.10;;
76765;SDS011;65707;52.362;6.588;2024-03-23T12:44:13;9.23;;;2.40;;
76765;SDS011;65707;52.362;6.588;2024-03-23T12:46:41;10.00;;;2.42;;
76765;SDS011;65707;52.362;6.588;2024-03-23T12:49:08;7.03;;;1.42;;
76765;SDS011;65707;52.362;6.588;2024-03-23T12:51:34;7.53;;;1.70;;
76765;SDS011;65707;52.362;6.588;2024-03-23T12:54:00;9.73;;;1.77;;
76765;SDS011;65707;52.362;6.588;2024-03-23T12:56:26;8.98;;;2.58;;
76765;SDS011;65707;52.362;6.588;2024-03-23T12:58:54;7.85;;;1.77;;
76765;SDS011;65707;52.362;6.588;2024-03-23T13:01:22;9.65;;;2.63;;
76765;SDS011;65707;52.362;6.588;2024-03-23T13:03:50;9.27;;;1.95;;
76765;SDS011;65707;52.362;6.588;2024-03-23T13:06:17;11.52;;;3.10;;
76765;SDS011;65707;52.362;6.588;2024-03-23T13:08:44;11.82;;;2.20;;
76765;SDS011;65707;52.362;6.588;2024-03-23T13:11:11;13.60;;;3.35;;
76765;SDS011;65707;52.362;6.588;2024-03-23T13:13:38;12.00;;;2.00;;
76765;SDS011;65707;52.362;6.588;2024-03-23T13:16:04;10.10;;;1.63;;
76765;SDS011;65707;52.362;6.588;2024-03-23T13:18:31;13.80;;;2.20;;
76765;SDS011;65707;52.362;6.588;2024-03-23T13:20:59;9.80;;;1.95;;
76765;SDS011;65707;52.362;6.588;2024-03-23T13:23:26;11.65;;;1.63;;
76765;SDS011;65707;52.362;6.588;2024-03-23T13:25:52;7.78;;;1.90;;
76765;SDS011;65707;52.362;6.588;2024-03-23T13:28:20;10.18;;;1.75;;
76765;SDS011;65707;52.362;6.588;2024-03-23T13:30:51;8.55;;;1.60;;
76765;SDS011;65707;52.362;6.588;2024-03-23T13:33:18;7.45;;;1.60;;
76765;SDS011;65707;52.362;6.588;2024-03-23T13:35:50;9.70;;;1.98;;
76765;SDS011;65707;52.362;6.588;2024-03-23T13:38:19;7.97;;;1.40;;
76765;SDS011;65707;52.362;6.588;2024-03-23T13:40:51;7.03;;;1.30;;
76765;SDS011;65707;52.362;6.588;2024-03-23T13:43:19;7.28;;;1.20;;
76765;SDS011;65707;52.362;6.588;2024-03-23T13:45:46;7.00;;;1.35;;
76765;SDS011;65707;52.362;6.588;2024-03-23T13:48:14;8.73;;;1.38;;
76765;SDS011;65707;52.362;6.588;2024-03-23T13:50:41;7.18;;;1.42;;
76765;SDS011;65707;52.362;6.588;2024-03-23T13:53:08;7.68;;;1.17;;
76765;SDS011;65707;52.362;6.588;2024-03-23T13:55:35;8.32;;;1.20;;
76765;SDS011;65707;52.362;6.588;2024-03-23T13:58:02;9.40;;;1.20;;
76765;SDS011;65707;52.362;6.588;2024-03-23T14:00:29;6.65;;;1.13;;
76765;SDS011;65707;52.362;6.588;2024-03-23T14:02:57;8.25;;;1.40;;
76765;SDS011;65707;52.362;6.588;2024-03-23T14:05:23;8.55;;;1.30;;
76765;SDS011;65707;52.362;6.588;2024-03-23T14:07:50;9.88;;;1.73;;
76765;SDS011;65707;52.362;6.588;2024-03-23T14:10:16;6.50;;;1.00;;
76765;SDS011;65707;52.362;6.588;2024-03-23T14:12:44;3.90;;;0.70;;
76765;SDS011;65707;52.362;6.588;2024-03-23T14:15:09;5.45;;;0.90;;
76765;SDS011;65707;52.362;6.588;2024-03-23T14:17:36;6.80;;;0.80;;
76765;SDS011;65707;52.362;6.588;2024-03-23T14:20:02;4.35;;;0.70;;
76765;SDS011;65707;52.362;6.588;2024-03-23T14:22:30;4.88;;;0.73;;
76765;SDS011;65707;52.362;6.588;2024-03-23T14:24:56;5.53;;;0.93;;
76765;SDS011;65707;52.362;6.588;2024-03-23T14:27:23;7.38;;;1.00;;
76765;SDS011;65707;52.362;6.588;2024-03-23T14:29:50;5.63;;;0.98;;
76765;SDS011;65707;52.362;6.588;2024-03-23T14:32:17;5.43;;;0.80;;
76765;SDS011;65707;52.362;6.588;2024-03-23T14:34:42;4.38;;;1.00;;
76765;SDS011;65707;52.362;6.588;2024-03-23T14:37:09;6.38;;;1.00;;
76765;SDS011;65707;52.362;6.588;2024-03-23T14:39:35;5.22;;;0.98;;
76765;SDS011;65707;52.362;6.588;2024-03-23T14:42:04;7.15;;;1.30;;
76765;SDS011;65707;52.362;6.588;2024-03-23T14:44:32;6.25;;;0.80;;
76765;SDS011;65707;52.362;6.588;2024-03-23T14:47:00;8.20;;;1.45;;
76765;SDS011;65707;52.362;6.588;2024-03-23T14:49:26;5.40;;;1.10;;
76765;SDS011;65707;52.362;6.588;2024-03-23T14:51:53;8.07;;;1.23;;
76765;SDS011;65707;52.362;6.588;2024-03-23T14:54:18;8.18;;;1.30;;
76765;SDS011;65707;52.362;6.588;2024-03-23T14:56:45;9.40;;;1.33;;
76765;SDS011;65707;52.362;6.588;2024-03-23T14:59:12;7.15;;;1.05;;
76765;SDS011;65707;52.362;6.588;2024-03-23T15:01:39;6.25;;;1.10;;
76765;SDS011;65707;52.362;6.588;2024-03-23T15:04:06;8.32;;;1.55;;
76765;SDS011;65707;52.362;6.588;2024-03-23T15:06:33;10.05;;;1.40;;
76765;SDS011;65707;52.362;6.588;2024-03-23T15:08:59;8.85;;;1.15;;
76765;SDS011;65707;52.362;6.588;2024-03-23T15:11:25;9.02;;;1.30;;
76765;SDS011;65707;52.362;6.588;2024-03-23T15:13:51;7.45;;;1.23;;
76765;SDS011;65707;52.362;6.588;2024-03-23T15:16:18;10.30;;;1.17;;
76765;SDS011;65707;52.362;6.588;2024-03-23T15:18:45;6.38;;;1.13;;
76765;SDS011;65707;52.362;6.588;2024-03-23T15:21:13;7.45;;;1.30;;
76765;SDS011;65707;52.362;6.588;2024-03-23T15:23:44;8.80;;;1.50;;
76765;SDS011;65707;52.362;6.588;2024-03-23T15:26:11;8.43;;;1.60;;
76765;SDS011;65707;52.362;6.588;2024-03-23T15:28:37;5.57;;;1.10;;
76765;SDS011;65707;52.362;6.588;2024-03-23T15:31:06;7.10;;;1.52;;
76765;SDS011;65707;52.362;6.588;2024-03-23T15:33:34;7.50;;;1.20;;
76765;SDS011;65707;52.362;6.588;2024-03-23T15:36:02;8.48;;;1.13;;
76765;SDS011;65707;52.362;6.588;2024-03-23T15:38:30;8.13;;;1.10;;